createdAt,value
2022-08-28T00:00:13.213Z,23.90
2022-08-28T00:02:41.548Z,23.80
2022-08-28T00:05:11.945Z,23.80
2022-08-28T00:07:40.822Z,23.60
2022-08-28T00:10:11.714Z,23.60
2022-08-28T00:12:40.287Z,23.60
2022-08-28T00:15:12.951Z,23.70
2022-08-28T00:17:41.085Z,23.70
2022-08-28T00:20:10.747Z,23.70
2022-08-28T00:22:39.401Z,23.70
2022-08-28T00:25:12.579Z,23.80
2022-08-28T00:27:55.015Z,23.80
2022-08-28T00:30:39.354Z,23.90
2022-08-28T00:33:14.031Z,23.90
2022-08-28T00:35:42.769Z,23.90
2022-08-28T00:38:11.674Z,23.90
2022-08-28T00:40:40.799Z,24.00
2022-08-28T00:43:09.529Z,23.90
2022-08-28T00:45:40.082Z,23.90
2022-08-28T00:48:08.548Z,23.90
2022-08-28T00:51:00.658Z,24.00
2022-08-28T00:53:32.779Z,23.90
2022-08-28T00:56:04.211Z,23.90
2022-08-28T00:58:43.638Z,23.90
2022-08-28T01:01:12.877Z,23.90
2022-08-28T01:03:41.303Z,23.80
2022-08-28T01:06:09.149Z,23.80
2022-08-28T01:08:39.145Z,23.70
2022-08-28T01:11:08.397Z,23.80
2022-08-28T01:13:38.787Z,23.80
2022-08-28T01:16:08.117Z,23.70
2022-08-28T01:18:35.909Z,23.70
2022-08-28T01:21:24.067Z,23.60
2022-08-28T01:24:00.295Z,23.60
2022-08-28T01:26:29.493Z,23.60
2022-08-28T01:28:58.950Z,23.60
2022-08-28T01:31:29.881Z,23.70
2022-08-28T01:33:59.590Z,23.70
2022-08-28T01:36:27.527Z,23.60
2022-08-28T01:39:17.843Z,23.50
2022-08-28T01:41:48.276Z,23.40
2022-08-28T01:44:18.249Z,23.30
2022-08-28T01:46:46.691Z,23.20
2022-08-28T01:49:14.775Z,23.20
2022-08-28T01:51:42.943Z,23.20
2022-08-28T01:54:10.902Z,23.20
2022-08-28T01:56:40.810Z,23.10
2022-08-28T01:59:10.335Z,23.10
2022-08-28T02:01:38.363Z,23.00
2022-08-28T02:04:06.698Z,23.00
2022-08-28T02:06:34.678Z,23.00
2022-08-28T02:09:02.318Z,23.00
2022-08-28T02:11:30.970Z,22.90
2022-08-28T02:13:59.669Z,22.80
2022-08-28T02:16:27.568Z,22.90
2022-08-28T02:18:54.933Z,22.80
2022-08-28T02:21:22.242Z,22.80
2022-08-28T02:23:49.986Z,22.70
2022-08-28T02:26:17.457Z,22.70
2022-08-28T02:28:44.927Z,22.60
2022-08-28T02:31:12.500Z,22.60
2022-08-28T02:33:41.730Z,22.70
2022-08-28T02:36:10.819Z,22.90
2022-08-28T02:38:38.489Z,23.00
2022-08-28T02:41:07.024Z,23.00
2022-08-28T02:43:34.917Z,22.70
2022-08-28T02:46:02.861Z,22.60
2022-08-28T02:48:32.465Z,22.70
2022-08-28T02:51:03.171Z,22.70
2022-08-28T02:53:31.124Z,22.70
2022-08-28T02:55:59.441Z,22.50
2022-08-28T02:58:30.217Z,22.40
2022-08-28T03:00:58.140Z,22.50
2022-08-28T03:03:27.588Z,22.60
2022-08-28T03:05:56.006Z,22.60
2022-08-28T03:08:27.164Z,22.60
2022-08-28T03:10:55.208Z,22.50
2022-08-28T03:13:27.145Z,22.40
2022-08-28T03:15:55.880Z,22.60
2022-08-28T03:18:25.360Z,22.60
2022-08-28T03:20:53.982Z,22.60
2022-08-28T03:23:27.236Z,22.60
2022-08-28T03:25:57.521Z,22.60
2022-08-28T03:28:27.955Z,22.40
2022-08-28T03:30:55.419Z,22.30
2022-08-28T03:33:23.187Z,22.50
2022-08-28T03:35:51.493Z,22.50
2022-08-28T03:38:19.193Z,22.30
2022-08-28T03:40:47.614Z,22.40
2022-08-28T03:43:18.131Z,22.30
2022-08-28T03:46:16.110Z,22.40
2022-08-28T03:48:44.669Z,22.40
2022-08-28T03:51:19.607Z,22.30
2022-08-28T03:53:53.210Z,22.30
2022-08-28T03:56:24.026Z,22.20
2022-08-28T03:58:55.076Z,22.20
2022-08-28T04:01:22.788Z,22.30
2022-08-28T04:03:50.327Z,22.20
2022-08-28T04:06:18.592Z,22.20
2022-08-28T04:08:46.004Z,22.20
2022-08-28T04:11:13.478Z,22.20
2022-08-28T04:13:42.047Z,22.30
2022-08-28T04:16:12.871Z,22.30
2022-08-28T04:18:42.481Z,22.30
2022-08-28T04:21:13.160Z,22.20
2022-08-28T04:23:43.392Z,22.20
2022-08-28T04:26:13.755Z,22.20
2022-08-28T04:28:41.819Z,22.20
2022-08-28T04:31:09.587Z,22.20
2022-08-28T04:33:38.896Z,22.30
2022-08-28T04:36:09.173Z,22.00
2022-08-28T04:38:42.957Z,22.10
2022-08-28T04:41:14.277Z,22.00
2022-08-28T04:43:42.121Z,22.20
2022-08-28T04:46:12.797Z,22.20
2022-08-28T04:48:40.907Z,22.20
2022-08-28T04:51:11.095Z,22.30
2022-08-28T04:53:39.367Z,22.30
2022-08-28T04:56:09.878Z,22.40
2022-08-28T04:58:38.363Z,22.30
2022-08-28T05:01:13.144Z,22.40
2022-08-28T05:03:41.259Z,22.50
2022-08-28T05:06:09.716Z,22.50
2022-08-28T05:08:37.100Z,22.40
2022-08-28T05:11:34.010Z,22.50
2022-08-28T05:14:10.541Z,22.60
2022-08-28T05:16:45.197Z,22.50
2022-08-28T05:19:13.518Z,22.30
2022-08-28T05:21:41.077Z,22.50
2022-08-28T05:24:09.679Z,22.50
2022-08-28T05:26:38.810Z,22.40
2022-08-28T05:29:08.622Z,22.50
2022-08-28T05:31:38.055Z,22.60
2022-08-28T05:34:06.914Z,22.60
2022-08-28T05:36:36.435Z,22.60
2022-08-28T05:39:08.010Z,22.80
2022-08-28T05:41:35.852Z,22.90
2022-08-28T05:44:09.001Z,22.90
2022-08-28T05:46:38.890Z,23.00
2022-08-28T05:49:09.994Z,23.10
2022-08-28T05:51:41.845Z,23.10
2022-08-28T05:54:10.176Z,23.10
2022-08-28T05:56:39.869Z,23.10
2022-08-28T05:59:08.251Z,23.20
2022-08-28T06:01:44.268Z,23.30
2022-08-28T06:04:15.385Z,23.40
2022-08-28T06:06:43.917Z,23.50
2022-08-28T06:09:25.360Z,23.60
2022-08-28T06:11:58.928Z,23.70
2022-08-28T06:14:27.693Z,23.80
2022-08-28T06:16:56.641Z,24.00
2022-08-28T06:19:26.510Z,24.20
2022-08-28T06:21:59.487Z,24.30
2022-08-28T06:24:28.652Z,24.50
2022-08-28T06:26:58.651Z,24.60
2022-08-28T06:29:27.942Z,24.70
2022-08-28T06:32:01.558Z,24.80
2022-08-28T06:34:29.771Z,24.90
2022-08-28T06:36:57.389Z,25.00
2022-08-28T06:39:24.875Z,25.20
2022-08-28T06:41:52.635Z,25.30
2022-08-28T06:44:21.666Z,25.30
2022-08-28T06:46:52.611Z,25.50
2022-08-28T06:49:20.359Z,25.50
2022-08-28T06:51:48.054Z,25.60
2022-08-28T06:54:22.701Z,25.70
2022-08-28T06:56:52.391Z,25.70
2022-08-28T06:59:19.966Z,25.80
2022-08-28T07:01:47.449Z,25.90
2022-08-28T07:04:15.010Z,26.00
2022-08-28T07:06:47.087Z,26.20
2022-08-28T07:09:14.622Z,26.30
2022-08-28T07:11:46.848Z,26.40
2022-08-28T07:14:14.160Z,26.50
2022-08-28T07:16:42.038Z,26.60
2022-08-28T07:19:12.245Z,26.70
2022-08-28T07:21:42.636Z,26.90
2022-08-28T07:24:12.363Z,26.90
2022-08-28T07:26:41.338Z,27.00
2022-08-28T07:29:10.778Z,27.10
2022-08-28T07:31:45.961Z,27.00
2022-08-28T07:34:14.438Z,26.90
2022-08-28T07:36:42.912Z,26.90
2022-08-28T07:39:11.683Z,27.10
2022-08-28T07:41:40.630Z,27.20
2022-08-28T07:44:28.474Z,27.40
2022-08-28T07:46:58.495Z,27.50
2022-08-28T07:49:26.301Z,27.60
2022-08-28T07:51:54.598Z,27.70
2022-08-28T07:54:23.639Z,27.70
2022-08-28T07:56:51.454Z,27.80
2022-08-28T07:59:19.624Z,27.80
2022-08-28T08:01:51.066Z,27.90
2022-08-28T08:04:20.281Z,28.00
2022-08-28T08:06:47.833Z,28.00
2022-08-28T08:09:17.018Z,28.10
2022-08-28T08:11:44.991Z,28.20
2022-08-28T08:14:13.004Z,28.30
2022-08-28T08:16:43.687Z,28.30
2022-08-28T08:19:15.536Z,28.30
2022-08-28T08:21:45.737Z,28.50
2022-08-28T08:24:19.903Z,28.50
2022-08-28T08:27:00.331Z,28.50
2022-08-28T08:29:38.503Z,28.60
2022-08-28T08:32:11.459Z,28.60
2022-08-28T08:34:41.577Z,28.50
2022-08-28T08:37:09.905Z,28.50
2022-08-28T08:39:37.571Z,28.50
2022-08-28T08:42:10.718Z,28.40
2022-08-28T08:44:41.601Z,28.40
2022-08-28T08:47:23.251Z,28.40
2022-08-28T08:50:02.848Z,28.50
2022-08-28T08:52:39.132Z,28.50
2022-08-28T08:55:25.039Z,28.60
2022-08-28T08:57:59.643Z,28.50
2022-08-28T09:00:27.816Z,28.60
2022-08-28T09:03:05.600Z,28.60
2022-08-28T09:05:46.960Z,28.60
2022-08-28T09:08:25.667Z,28.60
2022-08-28T09:11:02.484Z,28.70
2022-08-28T09:14:01.596Z,28.80
2022-08-28T09:16:43.398Z,28.70
2022-08-28T09:19:17.713Z,28.80
2022-08-28T09:21:47.658Z,28.80
2022-08-28T09:24:20.671Z,28.80
2022-08-28T09:27:07.485Z,28.90
2022-08-28T09:29:43.493Z,28.80
2022-08-28T09:32:25.108Z,28.80
2022-08-28T09:35:16.128Z,28.80
2022-08-28T09:37:44.406Z,28.80
2022-08-28T09:40:19.774Z,28.80
2022-08-28T09:43:20.846Z,28.90
2022-08-28T09:46:05.307Z,28.90
2022-08-28T09:48:35.142Z,28.90
2022-08-28T09:51:05.011Z,28.90
2022-08-28T09:53:56.482Z,28.90
2022-08-28T09:56:33.717Z,28.90
2022-08-28T09:59:12.040Z,29.00
2022-08-28T10:01:46.906Z,29.10
2022-08-28T10:04:23.521Z,29.10
2022-08-28T10:07:15.916Z,29.20
2022-08-28T10:10:30.300Z,28.90
2022-08-28T10:13:04.485Z,28.80
2022-08-28T10:15:42.589Z,28.80
2022-08-28T10:18:35.654Z,28.90
2022-08-28T10:21:02.864Z,29.00
2022-08-28T10:23:42.149Z,29.20
2022-08-28T10:26:47.477Z,29.10
2022-08-28T10:29:27.775Z,29.10
2022-08-28T10:31:58.123Z,29.00
2022-08-28T10:34:48.694Z,29.00
2022-08-28T10:37:37.082Z,29.10
2022-08-28T10:40:12.205Z,29.10
2022-08-28T10:42:47.421Z,29.10
2022-08-28T10:45:23.074Z,29.10
2022-08-28T10:47:57.079Z,29.10
2022-08-28T10:50:39.578Z,29.10
2022-08-28T10:53:14.205Z,29.00
2022-08-28T10:55:58.567Z,29.10
2022-08-28T10:58:27.741Z,29.10
2022-08-28T11:01:06.157Z,29.20
2022-08-28T11:03:43.600Z,29.30
2022-08-28T11:06:16.629Z,29.20
2022-08-28T11:08:52.474Z,29.30
2022-08-28T11:11:46.828Z,29.30
2022-08-28T11:14:47.859Z,29.20
2022-08-28T11:17:22.268Z,29.30
2022-08-28T11:20:03.800Z,29.40
2022-08-28T11:22:50.437Z,29.40
2022-08-28T11:25:32.654Z,29.40
2022-08-28T11:28:27.288Z,29.40
2022-08-28T11:31:06.843Z,29.40
2022-08-28T11:33:41.891Z,29.50
2022-08-28T11:36:19.711Z,29.50
2022-08-28T11:38:53.086Z,29.60
2022-08-28T11:41:33.764Z,29.40
2022-08-28T11:44:11.395Z,29.50
2022-08-28T11:46:38.748Z,29.60
2022-08-28T11:49:28.667Z,29.50
2022-08-28T11:52:15.098Z,29.60
2022-08-28T11:55:08.470Z,29.60
2022-08-28T12:01:00.175Z,29.60
2022-08-28T12:03:40.475Z,29.60
2022-08-28T12:06:09.168Z,29.60
2022-08-28T12:08:46.248Z,29.60
2022-08-28T12:11:41.427Z,29.60
2022-08-28T12:14:09.912Z,29.50
2022-08-28T12:16:59.121Z,29.50
2022-08-28T12:19:50.027Z,29.60
2022-08-28T12:22:39.464Z,29.60
2022-08-28T12:25:12.712Z,29.70
2022-08-28T12:27:41.386Z,29.70
2022-08-28T12:30:08.955Z,29.70
2022-08-28T12:32:36.255Z,29.70
2022-08-28T12:35:03.596Z,29.60
2022-08-28T12:37:52.215Z,29.60
2022-08-28T12:40:32.518Z,29.70
2022-08-28T12:43:06.963Z,29.70
2022-08-28T12:45:54.205Z,29.80
2022-08-28T12:48:33.639Z,29.70
2022-08-28T12:51:08.264Z,29.80
2022-08-28T12:53:43.626Z,29.70
2022-08-28T12:56:13.347Z,29.70
2022-08-28T12:58:42.397Z,29.60
2022-08-28T13:01:22.016Z,29.60
2022-08-28T13:03:59.719Z,29.60
2022-08-28T13:06:36.619Z,29.60
2022-08-28T13:09:06.091Z,29.70
2022-08-28T13:11:46.192Z,29.70
2022-08-28T13:14:13.877Z,29.70
2022-08-28T13:16:46.938Z,29.70
2022-08-28T13:19:33.395Z,29.80
2022-08-28T13:22:08.810Z,29.70
2022-08-28T13:24:36.316Z,29.70
2022-08-28T13:27:12.579Z,29.70
2022-08-28T13:30:00.137Z,29.70
2022-08-28T13:32:30.724Z,29.80
2022-08-28T13:35:37.861Z,29.80
2022-08-28T13:38:12.797Z,29.90
2022-08-28T13:40:58.764Z,29.90
2022-08-28T13:43:29.450Z,29.80
2022-08-28T13:45:57.207Z,29.90
2022-08-28T13:48:27.674Z,29.90
2022-08-28T13:51:10.829Z,29.90
2022-08-28T13:53:42.335Z,29.90
2022-08-28T13:56:09.781Z,29.90
2022-08-28T13:58:37.458Z,29.80
2022-08-28T14:01:05.433Z,29.80
2022-08-28T14:03:36.584Z,29.80
2022-08-28T14:06:09.581Z,29.70
2022-08-28T14:08:37.419Z,29.70
2022-08-28T14:11:05.749Z,29.70
2022-08-28T14:13:33.430Z,29.70
2022-08-28T14:16:08.610Z,29.70
2022-08-28T14:18:36.226Z,29.70
2022-08-28T14:21:05.722Z,29.60
2022-08-28T14:23:33.893Z,29.50
2022-08-28T14:26:01.439Z,29.60
2022-08-28T14:28:29.030Z,29.50
2022-08-28T14:30:56.515Z,29.50
2022-08-28T14:33:23.895Z,29.50
2022-08-28T14:35:51.453Z,29.40
2022-08-28T14:38:18.865Z,29.40
2022-08-28T14:40:46.392Z,29.40
2022-08-28T14:43:14.865Z,29.40
2022-08-28T14:45:51.539Z,29.40
2022-08-28T14:48:19.501Z,29.30
2022-08-28T14:50:48.529Z,29.30
2022-08-28T14:53:17.426Z,29.30
2022-08-28T14:55:50.151Z,29.30
2022-08-28T14:58:19.656Z,29.30
2022-08-28T15:00:50.009Z,29.30
2022-08-28T15:03:19.070Z,29.30
2022-08-28T15:05:46.751Z,29.20
2022-08-28T15:08:16.762Z,29.20
2022-08-28T15:10:44.714Z,29.20
2022-08-28T15:13:13.360Z,29.10
2022-08-28T15:15:42.831Z,29.10
2022-08-28T15:18:11.291Z,29.00
2022-08-28T15:20:44.380Z,29.00
2022-08-28T15:23:13.729Z,29.00
2022-08-28T15:25:41.824Z,29.00
2022-08-28T15:28:09.833Z,29.00
2022-08-28T15:30:37.870Z,28.90
2022-08-28T15:33:06.067Z,28.90
2022-08-28T15:35:34.993Z,28.90
2022-08-28T15:38:02.397Z,28.90
2022-08-28T15:40:49.240Z,28.90
2022-08-28T15:43:18.062Z,28.80
2022-08-28T15:45:45.686Z,28.70
2022-08-28T15:48:13.668Z,28.70
2022-08-28T15:50:41.865Z,28.70
2022-08-28T15:53:10.216Z,28.70
2022-08-28T15:55:37.995Z,28.70
2022-08-28T15:58:13.601Z,28.60
2022-08-28T16:00:42.519Z,28.60
2022-08-28T16:03:10.279Z,28.60
2022-08-28T16:05:39.600Z,28.60
2022-08-28T16:08:09.736Z,28.50
2022-08-28T16:10:37.765Z,28.50
2022-08-28T16:13:06.911Z,28.40
2022-08-28T16:15:35.186Z,28.40
2022-08-28T16:18:02.643Z,28.30
2022-08-28T16:20:29.974Z,28.30
2022-08-28T16:22:57.265Z,28.20
2022-08-28T16:25:24.564Z,28.20
2022-08-28T16:27:52.214Z,28.10
2022-08-28T16:30:20.637Z,28.10
2022-08-28T16:32:52.684Z,28.00
2022-08-28T16:35:21.928Z,28.00
2022-08-28T16:37:50.171Z,27.90
2022-08-28T16:40:17.894Z,27.80
2022-08-28T16:42:51.254Z,27.80
2022-08-28T16:45:19.995Z,27.80
2022-08-28T16:47:47.456Z,27.80
2022-08-28T16:50:15.209Z,27.70
2022-08-28T16:52:42.653Z,27.60
2022-08-28T16:55:11.132Z,27.60
2022-08-28T16:57:39.108Z,27.60
2022-08-28T17:00:12.120Z,27.50
2022-08-28T17:02:41.292Z,27.50
2022-08-28T17:05:09.443Z,27.40
2022-08-28T17:07:36.838Z,27.40
2022-08-28T17:10:04.602Z,27.30
2022-08-28T17:12:32.106Z,27.30
2022-08-28T17:14:59.434Z,27.30
2022-08-28T17:17:26.799Z,27.20
2022-08-28T17:19:54.202Z,27.20
2022-08-28T17:22:33.296Z,27.10
2022-08-28T17:25:13.803Z,27.10
2022-08-28T17:27:42.027Z,27.10
2022-08-28T17:30:11.039Z,27.10
2022-08-28T17:32:38.774Z,27.00
2022-08-28T17:35:06.682Z,27.00
2022-08-28T17:37:34.266Z,26.90
2022-08-28T17:40:01.985Z,26.90
2022-08-28T17:42:29.538Z,26.80
2022-08-28T17:44:57.243Z,26.80
2022-08-28T17:47:26.397Z,26.70
2022-08-28T17:50:00.869Z,26.70
2022-08-28T17:52:30.030Z,26.70
2022-08-28T17:54:58.246Z,26.60
2022-08-28T17:57:25.912Z,26.60
2022-08-28T17:59:53.541Z,26.60
2022-08-28T18:02:21.068Z,26.60
2022-08-28T18:04:48.468Z,26.60
2022-08-28T18:07:16.760Z,26.60
2022-08-28T18:09:44.743Z,26.50
2022-08-28T18:12:12.955Z,26.50
2022-08-28T18:14:41.381Z,26.50
2022-08-28T18:17:11.014Z,26.40
2022-08-28T18:19:40.779Z,26.50
2022-08-28T18:22:10.894Z,26.40
2022-08-28T18:24:39.684Z,26.40
2022-08-28T18:27:08.787Z,26.40
2022-08-28T18:29:37.373Z,26.40
2022-08-28T18:32:06.189Z,26.40
2022-08-28T18:34:34.886Z,26.40
2022-08-28T18:37:02.722Z,26.40
2022-08-28T18:39:30.488Z,26.30
2022-08-28T18:41:59.386Z,26.40
2022-08-28T18:44:27.133Z,26.40
2022-08-28T18:46:55.048Z,26.30
2022-08-28T18:49:23.488Z,26.30
2022-08-28T18:51:51.206Z,26.30
2022-08-28T18:54:20.034Z,26.20
2022-08-28T18:56:50.340Z,26.20
2022-08-28T18:59:19.073Z,26.30
2022-08-28T19:01:47.680Z,26.20
2022-08-28T19:04:15.521Z,26.30
2022-08-28T19:06:44.433Z,26.20
2022-08-28T19:09:19.414Z,26.20
2022-08-28T19:11:48.844Z,26.20
2022-08-28T19:14:16.905Z,26.20
2022-08-28T19:16:45.296Z,26.10
2022-08-28T19:19:13.051Z,26.20
2022-08-28T19:21:40.903Z,26.10
2022-08-28T19:24:08.927Z,26.20
2022-08-28T19:26:37.532Z,26.20
2022-08-28T19:29:05.426Z,26.20
2022-08-28T19:31:34.241Z,26.20
2022-08-28T19:34:03.255Z,26.10
2022-08-28T19:36:31.693Z,26.10
2022-08-28T19:39:00.179Z,26.00
2022-08-28T19:41:28.639Z,26.00
2022-08-28T19:43:56.926Z,26.00
2022-08-28T19:46:25.072Z,26.00
2022-08-28T19:48:54.148Z,26.00
2022-08-28T19:51:24.138Z,25.90
2022-08-28T19:53:57.901Z,26.00
2022-08-28T19:56:32.397Z,25.90
2022-08-28T19:59:03.411Z,25.90
2022-08-28T20:01:33.884Z,25.80
2022-08-28T20:04:02.130Z,25.80
2022-08-28T20:06:33.683Z,25.80
2022-08-28T20:09:02.817Z,25.80
2022-08-28T20:11:31.059Z,25.80
2022-08-28T20:14:04.807Z,25.80
2022-08-28T20:16:36.212Z,25.80
2022-08-28T20:19:05.816Z,25.80
2022-08-28T20:21:39.926Z,25.70
2022-08-28T20:24:10.063Z,25.70
2022-08-28T20:26:37.528Z,25.70
2022-08-28T20:29:07.131Z,25.60
2022-08-28T20:31:35.399Z,25.60
2022-08-28T20:34:03.163Z,25.50
2022-08-28T20:36:30.537Z,25.50
2022-08-28T20:38:57.880Z,25.50
2022-08-28T20:41:25.433Z,25.50
2022-08-28T20:43:53.176Z,25.50
2022-08-28T20:46:20.606Z,25.50
2022-08-28T20:48:48.328Z,25.40
2022-08-28T20:51:15.665Z,25.30
2022-08-28T20:53:43.048Z,25.30
2022-08-28T20:56:11.101Z,25.30
2022-08-28T20:58:39.076Z,25.30
2022-08-28T21:01:06.512Z,25.20
2022-08-28T21:03:34.028Z,25.20
2022-08-28T21:06:01.800Z,25.20
2022-08-28T21:08:29.551Z,25.20
2022-08-28T21:10:56.970Z,25.10
2022-08-28T21:13:24.283Z,25.10
2022-08-28T21:15:51.793Z,25.10
2022-08-28T21:18:19.009Z,25.00
2022-08-28T21:20:46.796Z,25.00
2022-08-28T21:23:14.362Z,24.90
2022-08-28T21:25:42.120Z,24.90
2022-08-28T21:28:09.706Z,24.90
2022-08-28T21:30:37.809Z,24.90
2022-08-28T21:33:05.806Z,24.90
2022-08-28T21:35:33.420Z,24.80
2022-08-28T21:38:00.951Z,24.80
2022-08-28T21:40:28.484Z,24.80
2022-08-28T21:42:55.967Z,24.80
2022-08-28T21:45:23.541Z,24.80
2022-08-28T21:47:50.965Z,24.70
2022-08-28T21:50:18.553Z,24.70
2022-08-28T21:52:46.633Z,24.70
2022-08-28T21:55:16.516Z,24.70
2022-08-28T21:57:44.947Z,24.60
2022-08-28T22:00:17.847Z,24.60
2022-08-28T22:02:47.287Z,24.60
2022-08-28T22:05:14.793Z,24.50
2022-08-28T22:07:42.546Z,24.50
2022-08-28T22:10:10.309Z,24.50
2022-08-28T22:12:37.873Z,24.40
2022-08-28T22:15:05.846Z,24.40
2022-08-28T22:17:33.191Z,24.40
2022-08-28T22:20:00.542Z,24.40
2022-08-28T22:22:46.326Z,24.30
2022-08-28T22:25:13.786Z,24.30
2022-08-28T22:27:41.127Z,24.40
2022-08-28T22:30:09.209Z,24.40
2022-08-28T22:32:36.775Z,24.40
2022-08-28T22:35:04.822Z,24.30
2022-08-28T22:37:32.535Z,24.30
2022-08-28T22:40:00.006Z,24.20
2022-08-28T22:42:27.529Z,24.20
2022-08-28T22:44:55.431Z,24.20
2022-08-28T22:47:23.210Z,24.10
2022-08-28T22:49:50.547Z,24.10
2022-08-28T22:52:18.003Z,24.10
2022-08-28T22:54:45.459Z,24.00
2022-08-28T22:57:14.711Z,24.00
2022-08-28T22:59:42.419Z,24.00
2022-08-28T23:02:09.882Z,24.00
2022-08-28T23:04:37.886Z,23.90
2022-08-28T23:07:08.586Z,23.90
2022-08-28T23:09:36.738Z,23.90
2022-08-28T23:12:06.350Z,23.90
2022-08-28T23:14:34.024Z,23.90
2022-08-28T23:17:01.546Z,23.80
2022-08-28T23:19:29.300Z,23.80
2022-08-28T23:21:58.050Z,23.70
2022-08-28T23:24:25.599Z,23.70
2022-08-28T23:26:53.607Z,23.70
2022-08-28T23:29:21.536Z,23.60
2022-08-28T23:31:49.549Z,23.60
2022-08-28T23:34:17.070Z,23.60
2022-08-28T23:36:44.666Z,23.50
2022-08-28T23:39:13.105Z,23.50
2022-08-28T23:41:41.588Z,23.60
2022-08-28T23:44:09.560Z,23.50
2022-08-28T23:46:41.179Z,23.50
2022-08-28T23:49:09.584Z,23.50
2022-08-28T23:51:37.449Z,23.50
2022-08-28T23:54:05.213Z,23.50
2022-08-28T23:56:33.968Z,23.40
2022-08-28T23:59:01.595Z,23.40
